sensor_id;sensor_type;location;lat;lon;timestamp;P1;durP1;ratioP1;P2;durP2;ratioP2
31284;SDS011;56605;51.516;6.742;2022-12-08T00:02:10;23.98;;;11.73;;
31284;SDS011;56605;51.516;6.742;2022-12-08T00:04:35;24.42;;;11.60;;
31284;SDS011;56605;51.516;6.742;2022-12-08T00:07:21;26.98;;;12.50;;
31284;SDS011;56605;51.516;6.742;2022-12-08T00:10:05;22.05;;;12.23;;
31284;SDS011;56605;51.516;6.742;2022-12-08T00:12:31;20.45;;;13.10;;
31284;SDS011;56605;51.516;6.742;2022-12-08T00:14:56;19.50;;;11.40;;
31284;SDS011;56605;51.516;6.742;2022-12-08T00:17:21;23.80;;;13.45;;
31284;SDS011;56605;51.516;6.742;2022-12-08T00:19:46;22.80;;;11.52;;
31284;SDS011;56605;51.516;6.742;2022-12-08T00:22:11;23.15;;;12.73;;
31284;SDS011;56605;51.516;6.742;2022-12-08T00:24:37;26.80;;;12.73;;
31284;SDS011;56605;51.516;6.742;2022-12-08T00:27:03;17.77;;;10.88;;
31284;SDS011;56605;51.516;6.742;2022-12-08T00:29:29;18.80;;;11.07;;
31284;SDS011;56605;51.516;6.742;2022-12-08T00:31:54;18.45;;;11.25;;
31284;SDS011;56605;51.516;6.742;2022-12-08T00:34:19;19.95;;;10.57;;
31284;SDS011;56605;51.516;6.742;2022-12-08T00:36:45;21.58;;;12.27;;
31284;SDS011;56605;51.516;6.742;2022-12-08T00:39:10;20.17;;;10.63;;
31284;SDS011;56605;51.516;6.742;2022-12-08T00:41:35;23.13;;;11.40;;
31284;SDS011;56605;51.516;6.742;2022-12-08T00:44:19;19.23;;;11.38;;
31284;SDS011;56605;51.516;6.742;2022-12-08T00:46:45;20.05;;;11.82;;
31284;SDS011;56605;51.516;6.742;2022-12-08T00:49:10;19.42;;;12.23;;
31284;SDS011;56605;51.516;6.742;2022-12-08T00:51:35;22.05;;;12.30;;
31284;SDS011;56605;51.516;6.742;2022-12-08T00:54:01;23.05;;;10.93;;
31284;SDS011;56605;51.516;6.742;2022-12-08T00:56:26;21.48;;;12.27;;
31284;SDS011;56605;51.516;6.742;2022-12-08T00:58:51;18.67;;;11.15;;
31284;SDS011;56605;51.516;6.742;2022-12-08T01:01:16;20.13;;;12.27;;
31284;SDS011;56605;51.516;6.742;2022-12-08T01:03:42;24.13;;;11.52;;
31284;SDS011;56605;51.516;6.742;2022-12-08T01:06:08;17.30;;;11.55;;
31284;SDS011;56605;51.516;6.742;2022-12-08T01:08:34;20.92;;;11.57;;
31284;SDS011;56605;51.516;6.742;2022-12-08T01:11:03;22.73;;;11.52;;
31284;SDS011;56605;51.516;6.742;2022-12-08T01:13:28;22.90;;;11.07;;
31284;SDS011;56605;51.516;6.742;2022-12-08T01:15:53;19.30;;;11.07;;
31284;SDS011;56605;51.516;6.742;2022-12-08T01:18:18;23.13;;;12.10;;
31284;SDS011;56605;51.516;6.742;2022-12-08T01:20:43;24.80;;;13.43;;
31284;SDS011;56605;51.516;6.742;2022-12-08T01:23:09;17.67;;;11.00;;
31284;SDS011;56605;51.516;6.742;2022-12-08T01:25:52;23.40;;;14.45;;
31284;SDS011;56605;51.516;6.742;2022-12-08T01:28:17;18.25;;;11.85;;
31284;SDS011;56605;51.516;6.742;2022-12-08T01:30:43;24.15;;;13.95;;
31284;SDS011;56605;51.516;6.742;2022-12-08T01:33:08;27.25;;;14.00;;
31284;SDS011;56605;51.516;6.742;2022-12-08T01:35:33;27.35;;;14.77;;
31284;SDS011;56605;51.516;6.742;2022-12-08T01:37:58;23.85;;;14.07;;
31284;SDS011;56605;51.516;6.742;2022-12-08T01:40:23;23.77;;;13.90;;
31284;SDS011;56605;51.516;6.742;2022-12-08T01:42:48;26.70;;;15.73;;
31284;SDS011;56605;51.516;6.742;2022-12-08T01:45:18;28.25;;;15.93;;
31284;SDS011;56605;51.516;6.742;2022-12-08T01:47:46;36.00;;;15.70;;
31284;SDS011;56605;51.516;6.742;2022-12-08T01:50:12;28.40;;;15.90;;
31284;SDS011;56605;51.516;6.742;2022-12-08T01:55:07;35.13;;;18.05;;
31284;SDS011;56605;51.516;6.742;2022-12-08T01:57:36;31.02;;;18.10;;
31284;SDS011;56605;51.516;6.742;2022-12-08T02:00:07;29.08;;;16.02;;
31284;SDS011;56605;51.516;6.742;2022-12-08T02:02:35;17.58;;;10.25;;
31284;SDS011;56605;51.516;6.742;2022-12-08T02:05:04;25.95;;;14.88;;
31284;SDS011;56605;51.516;6.742;2022-12-08T02:07:30;35.92;;;17.50;;
31284;SDS011;56605;51.516;6.742;2022-12-08T02:09:55;29.10;;;17.17;;
31284;SDS011;56605;51.516;6.742;2022-12-08T02:12:21;33.85;;;17.23;;
31284;SDS011;56605;51.516;6.742;2022-12-08T02:14:46;28.98;;;17.00;;
31284;SDS011;56605;51.516;6.742;2022-12-08T02:24:33;36.20;;;19.20;;
31284;SDS011;56605;51.516;6.742;2022-12-08T02:30:01;44.88;;;19.73;;
31284;SDS011;56605;51.516;6.742;2022-12-08T02:34:57;38.13;;;21.70;;
31284;SDS011;56605;51.516;6.742;2022-12-08T02:37:30;35.28;;;18.63;;
31284;SDS011;56605;51.516;6.742;2022-12-08T02:42:59;39.15;;;20.38;;
31284;SDS011;56605;51.516;6.742;2022-12-08T02:46:09;34.55;;;18.70;;
31284;SDS011;56605;51.516;6.742;2022-12-08T02:48:14;44.25;;;21.27;;
31284;SDS011;56605;51.516;6.742;2022-12-08T02:50:39;44.95;;;20.95;;
31284;SDS011;56605;51.516;6.742;2022-12-08T02:53:04;45.75;;;21.27;;
31284;SDS011;56605;51.516;6.742;2022-12-08T02:58:09;42.50;;;21.23;;
31284;SDS011;56605;51.516;6.742;2022-12-08T03:03:25;42.78;;;21.20;;
31284;SDS011;56605;51.516;6.742;2022-12-08T03:06:03;41.55;;;22.10;;
31284;SDS011;56605;51.516;6.742;2022-12-08T03:08:43;42.88;;;21.02;;
31284;SDS011;56605;51.516;6.742;2022-12-08T03:11:14;44.20;;;21.45;;
31284;SDS011;56605;51.516;6.742;2022-12-08T03:13:44;35.65;;;15.93;;
31284;SDS011;56605;51.516;6.742;2022-12-08T03:16:12;39.92;;;18.10;;
31284;SDS011;56605;51.516;6.742;2022-12-08T03:18:38;43.05;;;20.85;;
31284;SDS011;56605;51.516;6.742;2022-12-08T03:21:06;47.92;;;22.02;;
31284;SDS011;56605;51.516;6.742;2022-12-08T03:23:34;45.13;;;21.10;;
31284;SDS011;56605;51.516;6.742;2022-12-08T03:26:07;47.42;;;21.45;;
31284;SDS011;56605;51.516;6.742;2022-12-08T03:28:35;43.33;;;21.45;;
31284;SDS011;56605;51.516;6.742;2022-12-08T03:31:01;46.30;;;22.92;;
31284;SDS011;56605;51.516;6.742;2022-12-08T03:33:32;35.80;;;18.77;;
31284;SDS011;56605;51.516;6.742;2022-12-08T03:35:59;42.95;;;20.70;;
31284;SDS011;56605;51.516;6.742;2022-12-08T03:38:25;40.10;;;19.30;;
31284;SDS011;56605;51.516;6.742;2022-12-08T03:40:50;45.78;;;22.67;;
31284;SDS011;56605;51.516;6.742;2022-12-08T03:43:34;40.33;;;17.38;;
31284;SDS011;56605;51.516;6.742;2022-12-08T03:45:59;44.97;;;19.98;;
31284;SDS011;56605;51.516;6.742;2022-12-08T03:48:25;40.33;;;18.75;;
31284;SDS011;56605;51.516;6.742;2022-12-08T03:50:50;37.88;;;19.80;;
31284;SDS011;56605;51.516;6.742;2022-12-08T03:53:15;46.10;;;22.05;;
31284;SDS011;56605;51.516;6.742;2022-12-08T03:55:40;44.97;;;20.10;;
31284;SDS011;56605;51.516;6.742;2022-12-08T03:58:05;40.88;;;18.77;;
31284;SDS011;56605;51.516;6.742;2022-12-08T04:00:30;44.67;;;19.30;;
31284;SDS011;56605;51.516;6.742;2022-12-08T04:02:55;42.95;;;20.67;;
31284;SDS011;56605;51.516;6.742;2022-12-08T04:05:21;42.30;;;20.57;;
31284;SDS011;56605;51.516;6.742;2022-12-08T04:07:46;38.38;;;18.63;;
31284;SDS011;56605;51.516;6.742;2022-12-08T04:10:11;38.85;;;17.98;;
31284;SDS011;56605;51.516;6.742;2022-12-08T04:12:36;44.30;;;19.90;;
31284;SDS011;56605;51.516;6.742;2022-12-08T04:15:01;37.92;;;17.75;;
31284;SDS011;56605;51.516;6.742;2022-12-08T04:17:26;42.25;;;19.67;;
31284;SDS011;56605;51.516;6.742;2022-12-08T04:19:52;40.17;;;19.08;;
31284;SDS011;56605;51.516;6.742;2022-12-08T04:22:17;40.92;;;18.48;;
31284;SDS011;56605;51.516;6.742;2022-12-08T04:24:42;38.10;;;18.10;;
31284;SDS011;56605;51.516;6.742;2022-12-08T04:27:07;33.95;;;17.85;;
31284;SDS011;56605;51.516;6.742;2022-12-08T04:29:32;40.22;;;17.67;;
31284;SDS011;56605;51.516;6.742;2022-12-08T04:31:57;38.63;;;17.10;;
31284;SDS011;56605;51.516;6.742;2022-12-08T04:34:23;37.55;;;17.75;;
31284;SDS011;56605;51.516;6.742;2022-12-08T04:36:48;35.38;;;16.77;;
31284;SDS011;56605;51.516;6.742;2022-12-08T04:39:13;33.25;;;17.17;;
31284;SDS011;56605;51.516;6.742;2022-12-08T04:41:38;43.65;;;18.65;;
31284;SDS011;56605;51.516;6.742;2022-12-08T04:44:03;34.63;;;18.38;;
31284;SDS011;56605;51.516;6.742;2022-12-08T04:46:28;39.42;;;18.02;;
31284;SDS011;56605;51.516;6.742;2022-12-08T04:48:54;29.75;;;16.02;;
31284;SDS011;56605;51.516;6.742;2022-12-08T04:51:19;33.25;;;17.88;;
31284;SDS011;56605;51.516;6.742;2022-12-08T04:53:45;35.15;;;17.88;;
31284;SDS011;56605;51.516;6.742;2022-12-08T04:56:16;31.52;;;16.95;;
31284;SDS011;56605;51.516;6.742;2022-12-08T04:58:41;34.00;;;16.73;;
31284;SDS011;56605;51.516;6.742;2022-12-08T05:01:07;34.25;;;16.20;;
31284;SDS011;56605;51.516;6.742;2022-12-08T05:03:32;30.90;;;16.60;;
31284;SDS011;56605;51.516;6.742;2022-12-08T05:06:00;39.25;;;17.30;;
31284;SDS011;56605;51.516;6.742;2022-12-08T05:08:26;31.25;;;15.18;;
31284;SDS011;56605;51.516;6.742;2022-12-08T05:10:51;30.77;;;14.93;;
31284;SDS011;56605;51.516;6.742;2022-12-08T05:13:16;29.08;;;16.15;;
31284;SDS011;56605;51.516;6.742;2022-12-08T05:15:41;25.40;;;12.63;;
31284;SDS011;56605;51.516;6.742;2022-12-08T05:18:07;28.48;;;13.57;;
31284;SDS011;56605;51.516;6.742;2022-12-08T05:20:32;22.15;;;11.48;;
31284;SDS011;56605;51.516;6.742;2022-12-08T05:22:57;29.40;;;14.20;;
31284;SDS011;56605;51.516;6.742;2022-12-08T05:25:22;26.92;;;14.45;;
31284;SDS011;56605;51.516;6.742;2022-12-08T05:27:48;23.30;;;12.40;;
31284;SDS011;56605;51.516;6.742;2022-12-08T05:30:13;23.20;;;11.73;;
31284;SDS011;56605;51.516;6.742;2022-12-08T05:32:38;26.70;;;13.38;;
31284;SDS011;56605;51.516;6.742;2022-12-08T05:35:03;24.75;;;12.93;;
31284;SDS011;56605;51.516;6.742;2022-12-08T05:37:29;16.73;;;8.27;;
31284;SDS011;56605;51.516;6.742;2022-12-08T05:39:54;21.45;;;11.75;;
31284;SDS011;56605;51.516;6.742;2022-12-08T05:42:19;19.53;;;11.93;;
31284;SDS011;56605;51.516;6.742;2022-12-08T05:44:44;19.83;;;11.00;;
31284;SDS011;56605;51.516;6.742;2022-12-08T05:47:09;23.97;;;12.03;;
31284;SDS011;56605;51.516;6.742;2022-12-08T05:49:35;20.15;;;11.20;;
31284;SDS011;56605;51.516;6.742;2022-12-08T05:52:00;21.33;;;10.38;;
31284;SDS011;56605;51.516;6.742;2022-12-08T05:54:25;22.65;;;11.20;;
31284;SDS011;56605;51.516;6.742;2022-12-08T05:56:50;22.27;;;11.70;;
31284;SDS011;56605;51.516;6.742;2022-12-08T05:59:15;20.38;;;11.23;;
31284;SDS011;56605;51.516;6.742;2022-12-08T06:01:40;23.42;;;12.35;;
31284;SDS011;56605;51.516;6.742;2022-12-08T06:04:06;30.75;;;13.68;;
31284;SDS011;56605;51.516;6.742;2022-12-08T06:06:32;21.90;;;11.52;;
31284;SDS011;56605;51.516;6.742;2022-12-08T06:08:58;25.77;;;11.35;;
31284;SDS011;56605;51.516;6.742;2022-12-08T06:11:24;22.48;;;12.38;;
31284;SDS011;56605;51.516;6.742;2022-12-08T06:13:53;22.75;;;12.05;;
31284;SDS011;56605;51.516;6.742;2022-12-08T06:16:18;26.25;;;12.32;;
31284;SDS011;56605;51.516;6.742;2022-12-08T06:18:43;29.13;;;13.93;;
31284;SDS011;56605;51.516;6.742;2022-12-08T06:21:09;20.77;;;10.95;;
31284;SDS011;56605;51.516;6.742;2022-12-08T06:23:35;28.80;;;12.77;;
31284;SDS011;56605;51.516;6.742;2022-12-08T06:26:01;21.25;;;10.02;;
31284;SDS011;56605;51.516;6.742;2022-12-08T06:28:26;21.63;;;11.73;;
31284;SDS011;56605;51.516;6.742;2022-12-08T06:30:52;26.70;;;12.38;;
31284;SDS011;56605;51.516;6.742;2022-12-08T06:33:17;26.23;;;11.85;;
31284;SDS011;56605;51.516;6.742;2022-12-08T06:35:42;19.80;;;10.60;;
31284;SDS011;56605;51.516;6.742;2022-12-08T06:38:07;24.55;;;12.25;;
31284;SDS011;56605;51.516;6.742;2022-12-08T06:40:32;22.77;;;12.37;;
31284;SDS011;56605;51.516;6.742;2022-12-08T06:42:57;23.90;;;11.57;;
31284;SDS011;56605;51.516;6.742;2022-12-08T06:45:23;20.55;;;9.95;;
31284;SDS011;56605;51.516;6.742;2022-12-08T06:47:48;22.50;;;10.18;;
31284;SDS011;56605;51.516;6.742;2022-12-08T06:50:13;27.40;;;12.75;;
31284;SDS011;56605;51.516;6.742;2022-12-08T06:52:38;24.67;;;12.95;;
31284;SDS011;56605;51.516;6.742;2022-12-08T06:55:05;28.73;;;13.82;;
31284;SDS011;56605;51.516;6.742;2022-12-08T06:57:31;20.30;;;9.32;;
31284;SDS011;56605;51.516;6.742;2022-12-08T06:59:56;21.80;;;11.18;;
31284;SDS011;56605;51.516;6.742;2022-12-08T07:02:21;26.30;;;11.37;;
31284;SDS011;56605;51.516;6.742;2022-12-08T07:04:46;19.45;;;9.57;;
31284;SDS011;56605;51.516;6.742;2022-12-08T07:07:11;23.98;;;10.70;;
31284;SDS011;56605;51.516;6.742;2022-12-08T07:09:36;19.50;;;9.77;;
31284;SDS011;56605;51.516;6.742;2022-12-08T07:12:02;22.85;;;12.52;;
31284;SDS011;56605;51.516;6.742;2022-12-08T07:14:28;19.13;;;9.93;;
31284;SDS011;56605;51.516;6.742;2022-12-08T07:16:53;25.42;;;12.60;;
31284;SDS011;56605;51.516;6.742;2022-12-08T07:19:18;23.10;;;11.68;;
31284;SDS011;56605;51.516;6.742;2022-12-08T07:21:43;23.92;;;12.73;;
31284;SDS011;56605;51.516;6.742;2022-12-08T07:24:09;18.48;;;9.18;;
31284;SDS011;56605;51.516;6.742;2022-12-08T07:26:34;23.80;;;11.45;;
31284;SDS011;56605;51.516;6.742;2022-12-08T07:28:59;20.92;;;9.27;;
31284;SDS011;56605;51.516;6.742;2022-12-08T07:31:25;25.20;;;11.15;;
31284;SDS011;56605;51.516;6.742;2022-12-08T07:33:51;18.13;;;9.57;;
31284;SDS011;56605;51.516;6.742;2022-12-08T07:36:16;14.27;;;8.13;;
31284;SDS011;56605;51.516;6.742;2022-12-08T07:38:42;20.70;;;10.63;;
31284;SDS011;56605;51.516;6.742;2022-12-08T07:41:15;19.25;;;10.23;;
31284;SDS011;56605;51.516;6.742;2022-12-08T07:43:40;20.15;;;10.57;;
31284;SDS011;56605;51.516;6.742;2022-12-08T07:46:05;26.63;;;10.90;;
31284;SDS011;56605;51.516;6.742;2022-12-08T07:48:31;18.08;;;9.93;;
31284;SDS011;56605;51.516;6.742;2022-12-08T07:51:02;17.30;;;9.57;;
31284;SDS011;56605;51.516;6.742;2022-12-08T07:53:28;20.13;;;10.07;;
31284;SDS011;56605;51.516;6.742;2022-12-08T07:55:54;17.92;;;8.43;;
31284;SDS011;56605;51.516;6.742;2022-12-08T07:58:19;15.38;;;8.10;;
31284;SDS011;56605;51.516;6.742;2022-12-08T08:00:44;12.93;;;7.60;;
31284;SDS011;56605;51.516;6.742;2022-12-08T08:03:10;17.20;;;7.80;;
31284;SDS011;56605;51.516;6.742;2022-12-08T08:05:35;13.43;;;8.02;;
31284;SDS011;56605;51.516;6.742;2022-12-08T08:08:00;13.60;;;7.17;;
31284;SDS011;56605;51.516;6.742;2022-12-08T08:10:25;16.55;;;8.73;;
31284;SDS011;56605;51.516;6.742;2022-12-08T08:12:51;13.55;;;8.35;;
31284;SDS011;56605;51.516;6.742;2022-12-08T08:15:16;13.65;;;5.55;;
31284;SDS011;56605;51.516;6.742;2022-12-08T08:17:43;11.65;;;6.55;;
31284;SDS011;56605;51.516;6.742;2022-12-08T08:20:08;14.40;;;6.50;;
31284;SDS011;56605;51.516;6.742;2022-12-08T08:22:34;18.65;;;9.73;;
31284;SDS011;56605;51.516;6.742;2022-12-08T08:24:59;16.38;;;10.27;;
31284;SDS011;56605;51.516;6.742;2022-12-08T08:27:24;21.20;;;10.68;;
31284;SDS011;56605;51.516;6.742;2022-12-08T08:29:51;7.13;;;4.37;;
31284;SDS011;56605;51.516;6.742;2022-12-08T08:32:16;22.80;;;10.48;;
31284;SDS011;56605;51.516;6.742;2022-12-08T08:34:41;16.90;;;9.30;;
31284;SDS011;56605;51.516;6.742;2022-12-08T08:37:06;14.10;;;8.43;;
31284;SDS011;56605;51.516;6.742;2022-12-08T08:39:31;17.38;;;10.02;;
31284;SDS011;56605;51.516;6.742;2022-12-08T08:41:57;14.02;;;7.50;;
31284;SDS011;56605;51.516;6.742;2022-12-08T08:44:22;14.35;;;9.00;;
31284;SDS011;56605;51.516;6.742;2022-12-08T08:46:47;17.40;;;8.13;;
31284;SDS011;56605;51.516;6.742;2022-12-08T08:49:12;16.90;;;7.80;;
31284;SDS011;56605;51.516;6.742;2022-12-08T08:51:38;16.33;;;7.40;;
31284;SDS011;56605;51.516;6.742;2022-12-08T08:54:03;20.73;;;8.13;;
31284;SDS011;56605;51.516;6.742;2022-12-08T08:56:28;8.32;;;4.53;;
31284;SDS011;56605;51.516;6.742;2022-12-08T08:58:53;11.90;;;6.78;;
31284;SDS011;56605;51.516;6.742;2022-12-08T09:01:23;17.13;;;8.73;;
31284;SDS011;56605;51.516;6.742;2022-12-08T09:03:49;15.55;;;8.07;;
31284;SDS011;56605;51.516;6.742;2022-12-08T09:06:14;12.10;;;6.47;;
31284;SDS011;56605;51.516;6.742;2022-12-08T09:08:40;19.85;;;9.35;;
31284;SDS011;56605;51.516;6.742;2022-12-08T09:11:05;19.95;;;10.98;;
31284;SDS011;56605;51.516;6.742;2022-12-08T09:13:31;19.85;;;10.30;;
31284;SDS011;56605;51.516;6.742;2022-12-08T09:15:56;20.05;;;10.15;;
31284;SDS011;56605;51.516;6.742;2022-12-08T09:18:21;20.15;;;11.27;;
31284;SDS011;56605;51.516;6.742;2022-12-08T09:20:46;21.92;;;10.90;;
31284;SDS011;56605;51.516;6.742;2022-12-08T09:23:11;23.40;;;11.57;;
31284;SDS011;56605;51.516;6.742;2022-12-08T09:25:37;28.30;;;12.07;;
31284;SDS011;56605;51.516;6.742;2022-12-08T09:28:02;17.77;;;8.63;;
31284;SDS011;56605;51.516;6.742;2022-12-08T09:30:27;25.90;;;11.93;;
31284;SDS011;56605;51.516;6.742;2022-12-08T09:32:52;26.38;;;13.75;;
31284;SDS011;56605;51.516;6.742;2022-12-08T09:35:17;25.33;;;13.43;;
31284;SDS011;56605;51.516;6.742;2022-12-08T09:37:43;26.65;;;14.38;;
31284;SDS011;56605;51.516;6.742;2022-12-08T09:40:09;27.00;;;12.88;;
31284;SDS011;56605;51.516;6.742;2022-12-08T09:42:46;28.02;;;13.70;;
31284;SDS011;56605;51.516;6.742;2022-12-08T09:45:14;26.58;;;13.65;;
31284;SDS011;56605;51.516;6.742;2022-12-08T09:47:47;31.25;;;16.02;;
31284;SDS011;56605;51.516;6.742;2022-12-08T09:52:43;22.40;;;10.10;;
31284;SDS011;56605;51.516;6.742;2022-12-08T09:55:14;26.58;;;13.50;;
31284;SDS011;56605;51.516;6.742;2022-12-08T09:57:41;30.55;;;13.88;;
31284;SDS011;56605;51.516;6.742;2022-12-08T10:00:09;30.08;;;14.52;;
31284;SDS011;56605;51.516;6.742;2022-12-08T10:02:38;33.50;;;17.00;;
31284;SDS011;56605;51.516;6.742;2022-12-08T10:05:03;28.15;;;14.35;;
31284;SDS011;56605;51.516;6.742;2022-12-08T10:07:32;31.02;;;13.38;;
31284;SDS011;56605;51.516;6.742;2022-12-08T10:10:18;35.92;;;16.38;;
31284;SDS011;56605;51.516;6.742;2022-12-08T10:15:40;27.00;;;11.50;;
31284;SDS011;56605;51.516;6.742;2022-12-08T10:18:16;24.75;;;13.55;;
31284;SDS011;56605;51.516;6.742;2022-12-08T10:20:43;28.23;;;14.68;;
31284;SDS011;56605;51.516;6.742;2022-12-08T10:25:46;27.95;;;13.95;;
31284;SDS011;56605;51.516;6.742;2022-12-08T10:28:12;24.10;;;12.10;;
31284;SDS011;56605;51.516;6.742;2022-12-08T10:30:37;27.80;;;14.20;;
31284;SDS011;56605;51.516;6.742;2022-12-08T10:33:02;27.10;;;14.13;;
31284;SDS011;56605;51.516;6.742;2022-12-08T10:38:31;27.77;;;14.95;;
31284;SDS011;56605;51.516;6.742;2022-12-08T10:41:03;27.25;;;15.65;;
31284;SDS011;56605;51.516;6.742;2022-12-08T10:43:30;33.85;;;16.98;;
31284;SDS011;56605;51.516;6.742;2022-12-08T10:46:06;30.50;;;15.85;;
31284;SDS011;56605;51.516;6.742;2022-12-08T10:48:31;32.83;;;16.58;;
31284;SDS011;56605;51.516;6.742;2022-12-08T10:50:57;33.03;;;17.08;;
31284;SDS011;56605;51.516;6.742;2022-12-08T10:53:27;31.55;;;15.27;;
31284;SDS011;56605;51.516;6.742;2022-12-08T10:58:28;30.65;;;17.17;;
31284;SDS011;56605;51.516;6.742;2022-12-08T11:00:55;34.47;;;15.50;;
31284;SDS011;56605;51.516;6.742;2022-12-08T11:03:21;31.60;;;15.77;;
31284;SDS011;56605;51.516;6.742;2022-12-08T11:05:48;26.70;;;12.85;;
31284;SDS011;56605;51.516;6.742;2022-12-08T11:08:14;28.90;;;16.35;;
31284;SDS011;56605;51.516;6.742;2022-12-08T11:10:42;29.02;;;15.27;;
31284;SDS011;56605;51.516;6.742;2022-12-08T11:13:19;30.67;;;15.40;;
31284;SDS011;56605;51.516;6.742;2022-12-08T11:15:45;23.65;;;12.43;;
31284;SDS011;56605;51.516;6.742;2022-12-08T11:21:06;29.20;;;13.43;;
31284;SDS011;56605;51.516;6.742;2022-12-08T11:23:33;24.58;;;12.70;;
31284;SDS011;56605;51.516;6.742;2022-12-08T11:26:00;14.98;;;8.18;;
31284;SDS011;56605;51.516;6.742;2022-12-08T11:28:27;21.05;;;11.32;;
31284;SDS011;56605;51.516;6.742;2022-12-08T11:31:00;14.48;;;8.15;;
31284;SDS011;56605;51.516;6.742;2022-12-08T11:33:27;22.55;;;13.77;;
31284;SDS011;56605;51.516;6.742;2022-12-08T11:35:54;22.20;;;10.32;;
31284;SDS011;56605;51.516;6.742;2022-12-08T11:38:22;20.45;;;11.68;;
31284;SDS011;56605;51.516;6.742;2022-12-08T11:40:49;21.08;;;10.45;;
31284;SDS011;56605;51.516;6.742;2022-12-08T11:45:59;17.38;;;9.30;;
31284;SDS011;56605;51.516;6.742;2022-12-08T11:48:32;8.93;;;5.75;;
31284;SDS011;56605;51.516;6.742;2022-12-08T11:51:00;16.27;;;8.18;;
31284;SDS011;56605;51.516;6.742;2022-12-08T11:56:22;14.32;;;6.80;;
31284;SDS011;56605;51.516;6.742;2022-12-08T11:58:55;10.20;;;6.17;;
31284;SDS011;56605;51.516;6.742;2022-12-08T12:01:22;13.30;;;6.20;;
31284;SDS011;56605;51.516;6.742;2022-12-08T12:03:51;11.53;;;6.60;;
31284;SDS011;56605;51.516;6.742;2022-12-08T12:06:37;10.43;;;6.33;;
31284;SDS011;56605;51.516;6.742;2022-12-08T12:14:30;10.25;;;6.65;;
31284;SDS011;56605;51.516;6.742;2022-12-08T12:17:05;13.75;;;6.70;;
31284;SDS011;56605;51.516;6.742;2022-12-08T12:19:35;9.03;;;5.70;;
31284;SDS011;56605;51.516;6.742;2022-12-08T12:22:13;11.13;;;6.38;;
31284;SDS011;56605;51.516;6.742;2022-12-08T12:24:39;8.27;;;4.93;;
31284;SDS011;56605;51.516;6.742;2022-12-08T12:27:14;9.50;;;5.90;;
31284;SDS011;56605;51.516;6.742;2022-12-08T12:29:44;12.43;;;6.93;;
31284;SDS011;56605;51.516;6.742;2022-12-08T12:32:10;10.93;;;6.73;;
31284;SDS011;56605;51.516;6.742;2022-12-08T12:34:49;11.60;;;6.73;;
31284;SDS011;56605;51.516;6.742;2022-12-08T12:37:17;10.67;;;6.13;;
31284;SDS011;56605;51.516;6.742;2022-12-08T12:40:00;7.70;;;5.50;;
31284;SDS011;56605;51.516;6.742;2022-12-08T12:45:11;8.13;;;5.17;;
31284;SDS011;56605;51.516;6.742;2022-12-08T12:47:44;9.43;;;5.33;;
31284;SDS011;56605;51.516;6.742;2022-12-08T12:50:11;10.50;;;5.83;;
31284;SDS011;56605;51.516;6.742;2022-12-08T12:52:36;9.20;;;5.73;;
31284;SDS011;56605;51.516;6.742;2022-12-08T12:57:37;7.18;;;4.50;;
31284;SDS011;56605;51.516;6.742;2022-12-08T13:04:57;10.70;;;4.57;;
31284;SDS011;56605;51.516;6.742;2022-12-08T13:07:24;11.23;;;6.90;;
31284;SDS011;56605;51.516;6.742;2022-12-08T13:09:55;12.30;;;7.87;;
31284;SDS011;56605;51.516;6.742;2022-12-08T13:12:22;12.63;;;7.77;;
31284;SDS011;56605;51.516;6.742;2022-12-08T13:14:48;12.20;;;7.20;;
31284;SDS011;56605;51.516;6.742;2022-12-08T13:17:35;12.77;;;7.32;;
31284;SDS011;56605;51.516;6.742;2022-12-08T13:20:00;14.63;;;8.33;;
31284;SDS011;56605;51.516;6.742;2022-12-08T13:27:55;17.33;;;10.05;;
31284;SDS011;56605;51.516;6.742;2022-12-08T13:30:38;24.77;;;11.13;;
31284;SDS011;56605;51.516;6.742;2022-12-08T13:33:06;22.48;;;13.48;;
31284;SDS011;56605;51.516;6.742;2022-12-08T13:35:34;20.17;;;11.07;;
31284;SDS011;56605;51.516;6.742;2022-12-08T13:38:03;21.23;;;11.43;;
31284;SDS011;56605;51.516;6.742;2022-12-08T13:40:40;20.65;;;11.57;;
31284;SDS011;56605;51.516;6.742;2022-12-08T13:43:11;22.02;;;11.90;;
31284;SDS011;56605;51.516;6.742;2022-12-08T13:45:40;24.52;;;12.60;;
31284;SDS011;56605;51.516;6.742;2022-12-08T13:50:51;26.08;;;13.15;;
31284;SDS011;56605;51.516;6.742;2022-12-08T13:53:25;23.75;;;12.48;;
31284;SDS011;56605;51.516;6.742;2022-12-08T13:55:54;25.35;;;12.43;;
31284;SDS011;56605;51.516;6.742;2022-12-08T13:58:24;22.70;;;11.90;;
31284;SDS011;56605;51.516;6.742;2022-12-08T14:03:23;24.00;;;12.77;;
31284;SDS011;56605;51.516;6.742;2022-12-08T14:05:49;27.08;;;12.57;;
31284;SDS011;56605;51.516;6.742;2022-12-08T14:08:27;22.90;;;12.98;;
31284;SDS011;56605;51.516;6.742;2022-12-08T14:10:56;22.05;;;11.40;;
31284;SDS011;56605;51.516;6.742;2022-12-08T14:13:22;23.00;;;11.88;;
31284;SDS011;56605;51.516;6.742;2022-12-08T14:15:48;24.45;;;13.02;;
31284;SDS011;56605;51.516;6.742;2022-12-08T14:18:24;24.23;;;12.85;;
31284;SDS011;56605;51.516;6.742;2022-12-08T14:21:03;18.55;;;12.05;;
31284;SDS011;56605;51.516;6.742;2022-12-08T14:23:28;26.57;;;12.03;;
31284;SDS011;56605;51.516;6.742;2022-12-08T14:25:54;23.30;;;13.00;;
31284;SDS011;56605;51.516;6.742;2022-12-08T14:28:19;28.17;;;13.00;;
31284;SDS011;56605;51.516;6.742;2022-12-08T14:30:45;25.40;;;12.18;;
31284;SDS011;56605;51.516;6.742;2022-12-08T14:33:12;26.00;;;13.15;;
31284;SDS011;56605;51.516;6.742;2022-12-08T14:35:38;21.90;;;12.57;;
31284;SDS011;56605;51.516;6.742;2022-12-08T14:38:05;20.75;;;12.10;;
31284;SDS011;56605;51.516;6.742;2022-12-08T14:40:34;16.27;;;9.13;;
31284;SDS011;56605;51.516;6.742;2022-12-08T14:45:28;18.63;;;10.13;;
31284;SDS011;56605;51.516;6.742;2022-12-08T14:47:53;17.65;;;9.55;;
31284;SDS011;56605;51.516;6.742;2022-12-08T14:53:02;24.03;;;9.60;;
31284;SDS011;56605;51.516;6.742;2022-12-08T14:55:32;17.05;;;10.48;;
31284;SDS011;56605;51.516;6.742;2022-12-08T14:57:58;18.27;;;9.23;;
31284;SDS011;56605;51.516;6.742;2022-12-08T15:00:23;20.10;;;9.40;;
31284;SDS011;56605;51.516;6.742;2022-12-08T15:02:49;20.57;;;9.10;;
31284;SDS011;56605;51.516;6.742;2022-12-08T15:05:15;15.38;;;7.70;;
31284;SDS011;56605;51.516;6.742;2022-12-08T15:07:48;15.40;;;8.90;;
31284;SDS011;56605;51.516;6.742;2022-12-08T15:12:38;17.13;;;7.93;;
31284;SDS011;56605;51.516;6.742;2022-12-08T15:17:33;16.90;;;9.48;;
31284;SDS011;56605;51.516;6.742;2022-12-08T15:19:59;19.52;;;9.30;;
31284;SDS011;56605;51.516;6.742;2022-12-08T15:22:25;18.57;;;10.47;;
31284;SDS011;56605;51.516;6.742;2022-12-08T15:24:51;25.00;;;11.93;;
31284;SDS011;56605;51.516;6.742;2022-12-08T15:27:20;20.77;;;11.52;;
31284;SDS011;56605;51.516;6.742;2022-12-08T15:29:46;23.50;;;12.30;;
31284;SDS011;56605;51.516;6.742;2022-12-08T15:32:12;25.15;;;12.43;;
31284;SDS011;56605;51.516;6.742;2022-12-08T15:34:39;25.67;;;14.43;;
31284;SDS011;56605;51.516;6.742;2022-12-08T15:37:05;31.07;;;14.87;;
31284;SDS011;56605;51.516;6.742;2022-12-08T15:39:36;29.83;;;14.52;;
31284;SDS011;56605;51.516;6.742;2022-12-08T15:42:03;26.93;;;15.00;;
31284;SDS011;56605;51.516;6.742;2022-12-08T15:44:28;27.73;;;14.32;;
31284;SDS011;56605;51.516;6.742;2022-12-08T15:46:56;34.08;;;16.27;;
31284;SDS011;56605;51.516;6.742;2022-12-08T15:49:22;36.35;;;15.60;;